• Join FlightAware (Why Join?)
  • Login
  • US Flag 
11:05AM EDT


 

Airport Tracker/Info


-or-


 

Live Flight TrackerFlight Track Log ✈ AWI4054 ✈ 10-May-2013 ✈ KCHS - KDCA

Flight Track Log - Related Links

Times and Time Zones

All times are in EDT time to prevent confusion due to time zone crossing. See the AWI4054 flight status page for this flight to view local times or setup timezone preferences in your user account.

Time Position Orientation Groundspeed Altitude Reporting Facility
EDT Latitude Longitude Course Direction KTS MPH feet Rate Location/Type
11:03AM 33.1403 -79.9588 16° North  Level FlightAware Approximate
11:03AM 32.9397 -79.9322 13° North 236 272 6,300  Level Jacksonville Center
11:04AM 33.2259 -79.9315 North  Level FlightAware Approximate
11:04AM 33.0128 -79.9322 360° North 231 266 8,500  Level Jacksonville Center
11:05AM 33.3126 -79.9104 23° Northeast  Level FlightAware Approximate
11:05AM 33.0922 -79.9347 358° North 247 284 10,400  Level Jacksonville Center
11:06AM 33.3963 -79.8774 North  Level FlightAware Approximate
11:06AM 33.1675 -79.9372 358° North 285 328 12,300  Level Jacksonville Center
11:07AM 33.4833 -79.8572 13° North  Level FlightAware Approximate
11:07AM 33.2508 -79.9319 North 296 341 13,800  Level Jacksonville Center
11:08AM 33.5696 -79.8325 13° North  Level FlightAware Approximate
11:08AM 33.3358 -79.9092 13° North 302 348 15,400  Level Jacksonville Center
11:09AM 33.6559 -79.8079 13° North  Level FlightAware Approximate
11:09AM 33.4228 -79.8864 12° North 314 361 16,800  Level Jacksonville Center
11:10AM 33.5142 -79.8608 13° North 314 361 17,900 1,080 Climbing Jacksonville Center
11:11AM 33.6075 -79.8353 13° North 325 374 19,000 1,080 Climbing Jacksonville Center
11:12AM 33.7028 -79.8094 13° North 336 387 20,100 1,140 Climbing Jacksonville Center
11:13AM 33.7981 -79.7811 14° North 347 399 21,300 1,080 Climbing Jacksonville Center
11:14AM 33.8886 -79.7278 26° Northeast 353 406 22,300 900 Climbing Jacksonville Center
11:15AM 33.9614 -79.6350 47° Northeast 359 413 23,200 960 Climbing Jacksonville Center
11:16AM 34.0342 -79.5472 45° Northeast 359 413 24,300 960 Climbing Jacksonville Center
11:17AM 34.1067 -79.4567 46° Northeast 364 419 25,200 780 Climbing Jacksonville Center
11:19AM 34.2783 -79.2561 44° Northeast 370 426 26,900 540 Climbing Washington Center
11:20AM 34.3742 -79.2000 26° Northeast 376 433 27,000  Climbing Washington Center
11:21AM 34.4736 -79.1467 24° Northeast 381 438 27,000  Level Washington Center
11:22AM 34.5692 -79.0903 26° Northeast 381 438 27,000  Level Washington Center
11:24AM 34.6625 -79.0361 26° Northeast 381 438 27,000  Level Washington Center
11:24AM 34.7581 -78.9819 25° Northeast 376 433 27,000  Level Washington Center
11:25AM 34.8556 -78.9253 25° Northeast 371 427 27,000  Level Washington Center
11:26AM 34.9489 -78.8708 26° Northeast 371 427 27,000  Level Washington Center
11:27AM 35.0444 -78.8139 26° Northeast 371 427 27,000  Level Washington Center
11:29AM 35.1397 -78.7567 26° Northeast 371 427 27,000  Level Washington Center
11:29AM 35.2394 -78.6997 25° Northeast 371 427 27,000  Level Washington Center
11:30AM 35.3347 -78.6447 25° Northeast 371 427 27,000  Level Washington Center
11:31AM 35.4406 -78.5800 26° Northeast 377 434 27,000  Level Washington Center
11:32AM 35.5294 -78.5297 25° Northeast 382 440 27,000  Level Washington Center
11:33AM 35.6397 -78.4622 26° Northeast 390 449 27,000  Level Washington Center
11:34AM 35.7350 -78.4067 25° Northeast 385 443 27,000  Level Washington Center
11:35AM 35.8281 -78.3511 26° Northeast 378 435 27,000  Level Washington Center
11:36AM 35.9233 -78.2928 26° Northeast 378 435 27,000  Level Washington Center
11:37AM 36.0183 -78.2344 26° Northeast 378 435 27,000  Level Washington Center
11:38AM 36.1136 -78.1811 24° Northeast 378 435 27,000  Level Washington Center
11:39AM 36.2086 -78.1225 26° Northeast 373 429 27,000  Level Washington Center
11:40AM 36.3039 -78.0636 26° Northeast 373 429 27,000  Level Washington Center
11:41AM 36.3989 -78.0047 27° Northeast 373 429 27,000  Level Washington Center
11:42AM 36.4811 -77.9556 26° Northeast 368 423 27,000  Level Washington Center
11:43AM 36.5761 -77.8964 27° Northeast 368 423 27,000  Level Washington Center
11:44AM 36.6692 -77.8397 26° Northeast 368 423 27,000  Level Washington Center
11:45AM 36.7233 -77.7272 59° Northeast 358 412 27,000  Level Washington Center
11:46AM 36.7342 -77.5900 84° East 358 412 27,000  Level Washington Center
11:47AM 36.7717 -77.4614 70° East 372 428 27,000  Level Washington Center
11:48AM 36.8700 -77.4353 12° North 326 375 27,000  Level Washington Center
11:49AM 36.9725 -77.4194 North 330 380 27,000 -600 Level Washington Center
11:50AM 37.0708 -77.4036 North 336 387 25,800 -1,500 Descending Washington Center
11:51AM 37.1692 -77.3850 North 347 399 24,000 -900 Descending Washington Center
11:52AM 37.2758 -77.3667 North 365 420 24,000 -180 Level Washington Center
11:53AM 37.3803 -77.3456 North 371 427 23,700 -540 Descending Washington Center
11:54AM 37.4828 -77.3244 North 371 427 23,000 -720 Descending Washington Center
11:55AM 37.5875 -77.3058 North 371 427 22,300 -720 Descending Washington Center
11:56AM 37.6881 -77.2817 11° North 371 427 21,600 -840 Descending Washington Center
11:57AM 37.7861 -77.2631 North 371 427 20,700 -1,500 Descending Washington Center
11:58AM 37.8825 -77.2414 10° North 365 420 18,700 -2,040 Descending Washington Center
11:59AM 37.9744 -77.2222 North 345 397 16,700 -1,980 Descending Washington Center
12:00PM 38.0603 -77.2083 North 331 381 14,800 -1,920 Descending Washington Center
12:01PM 38.1481 -77.1892 10° North 315 362 12,800 -1,980 Descending Washington Center
12:03PM 38.2339 -77.1697 10° North 310 357 10,800 -1,440 Descending Washington Center
12:03PM 38.3131 -77.1583 North 303 349 10,000 -420 Descending Washington Center
12:04PM 38.3906 -77.1386 11° North 289 333 10,000  Level Washington Center
12:06PM 38.4722 -77.1217 North 289 333 10,000  Level Washington Center
12:06PM 38.5517 -77.1047 North 289 333 10,000 -480 Level Washington Center
12:07PM 38.6289 -77.0878 10° North 289 333 9,100 -1,740 Descending Washington Center
12:08PM 38.6833 -77.0667 17° North 289 333 7,300 -1,980 Descending Potomac TRACON
12:09PM 38.7667 -77.0667 360° North 276 318 6,000 -660 Descending Potomac TRACON
12:10PM 38.8333 -77.1167 330° Northwest 281 323 6,000 -540 Level Potomac TRACON
12:11PM 38.8833 -77.1833 314° West 258 297 5,000 -960 Descending Potomac TRACON
12:12PM 38.9333 -77.2333 322° Northwest 259 298 4,100 -900 Descending Potomac TRACON